Fs Ipanema — A8PT6 — position and weather

sailwx.info

Track history (hours):
 
Tides and Currents Weather Stations Pressure Air Temp Water Temp Dewpoint Dewpoint Depression Visibility Wind Speed Wind Dir Waves Ship Positions

Fs Ipanema

Last reported at 2017-Dec-10 06:06 UTC. Time now 2017-Dec-18 14:49 UTC.
Position N 25°33' W 079°36'.
Warning: this ship's position is 8 days out of date.

Length 180 m; draft 8.4 m.

Type: Cargo ship. MMSI: 636018056.

Date/timePositionNaut miles runAvg speedWind from/ knotsBaromVisibWave heightAir tempDewpointWater temp
2017-Dec-10 06:06N 25°33' W 079°36'218.0
2017-Dec-10 06:00N 25°35' W 079°36'917.9
2017-Dec-10 05:30N 25°43' W 079°38'816.8
2017-Dec-10 05:00N 25°51' W 079°41'815.6
2017-Dec-10 04:30N 25°56' W 079°48'612.9
2017-Dec-10 04:00N 25°59' W 079°54'612.2
2017-Dec-10 03:31N 26°03' W 079°60'510.7
2017-Dec-10 03:00N 26°05' W 080°05'2 4.1
2017-Dec-10 02:30N 26°04' W 080°07'0 0.3
2017-Dec-10 01:50N 26°04' W 080°07'0 0.0
2017-Dec-10 01:20N 26°04' W 080°07'0 0.0
2017-Dec-10 00:53N 26°04' W 080°07'0 0.0
2017-Dec-10 00:23N 26°04' W 080°07'0 0.0
2017-Dec-09 23:53N 26°04' W 080°07'0 0.0
2017-Dec-09 23:29N 26°04' W 080°07'0 0.0
2017-Dec-09 22:53N 26°04' W 080°07'0 0.0
2017-Dec-09 22:26N 26°04' W 080°07'0 0.0
2017-Dec-09 21:56N 26°04' W 080°07'0 0.0
2017-Dec-09 21:26N 26°04' W 080°07'0 0.0
2017-Dec-09 20:56N 26°04' W 080°07'0 0.0
2017-Dec-09 20:26N 26°04' W 080°07'0 0.0
2017-Dec-09 19:56N 26°04' W 080°07'0 0.0
2017-Dec-09 19:29N 26°04' W 080°07'0 0.0
2017-Dec-09 18:59N 26°04' W 080°07'0 0.0
2017-Dec-09 18:29N 26°04' W 080°07'0 0.0
2017-Dec-09 17:59N 26°04' W 080°07'0 0.0
2017-Dec-09 17:29N 26°04' W 080°07'0 0.0
2017-Dec-09 16:59N 26°04' W 080°07'0 0.0
2017-Dec-09 16:29N 26°04' W 080°07'0 0.0
2017-Dec-09 15:59N 26°04' W 080°07'0 0.0
2017-Dec-09 15:29N 26°04' W 080°07'0 0.0
2017-Dec-09 14:59N 26°04' W 080°07'0 0.0
2017-Dec-09 14:29N 26°04' W 080°07'0 0.0
2017-Dec-09 13:59N 26°04' W 080°07'0 0.0
2017-Dec-09 13:29N 26°04' W 080°07'0 0.0
2017-Dec-09 12:59N 26°04' W 080°07'0 0.0
2017-Dec-09 12:23N 26°04' W 080°07'0 0.0
2017-Dec-09 11:59N 26°04' W 080°07'0 0.0
2017-Dec-09 11:20N 26°04' W 080°07'0 0.0
2017-Dec-09 10:53N 26°04' W 080°07'0 0.0
2017-Dec-09 10:23N 26°04' W 080°07'0 0.0
2017-Dec-09 09:53N 26°04' W 080°07'0 0.0
2017-Dec-09 09:23N 26°04' W 080°07'0 0.0
2017-Dec-09 08:59N 26°04' W 080°07'0 0.0
2017-Dec-09 08:23N 26°04' W 080°07'0 0.0
2017-Dec-09 07:56N 26°04' W 080°07'0 0.0
2017-Dec-09 07:26N 26°04' W 080°07'0 0.0
2017-Dec-09 06:56N 26°04' W 080°07'0 0.0
2017-Dec-09 06:26N 26°04' W 080°07'0 0.0
2017-Dec-09 05:59N 26°04' W 080°07'0 0.0
2017-Dec-09 05:26N 26°04' W 080°07'0 0.0
2017-Dec-09 04:59N 26°04' W 080°07'0 0.0
2017-Dec-09 04:29N 26°04' W 080°07'0 0.0
2017-Dec-09 03:59N 26°04' W 080°07'0 0.0
2017-Dec-09 03:29N 26°04' W 080°07'0 0.0
2017-Dec-09 02:59N 26°04' W 080°07'0 0.0
2017-Dec-09 02:26N 26°04' W 080°07'0 0.0
2017-Dec-09 01:56N 26°04' W 080°07'0 0.0
2017-Dec-09 01:29N 26°04' W 080°07'0 0.0
2017-Dec-09 00:59N 26°04' W 080°07'0 0.2
2017-Dec-09 00:30N 26°04' W 080°07'1 2.7
2017-Dec-09 00:00N 26°06' W 080°06'4 7.4
2017-Dec-08 23:30N 26°06' W 080°02'1 2.8
2017-Dec-08 23:00N 26°07' W 080°01'816.8
2017-Dec-08 22:30N 26°14' W 079°57'816.5
2017-Dec-08 22:00N 26°23' W 079°55'816.6
2017-Dec-08 21:31N 26°31' W 079°55'917.7
2017-Dec-08 21:01N 26°40' W 079°55'816.6
2017-Dec-08 20:31N 26°48' W 079°55'817.0
2017-Dec-08 20:01N 26°56' W 079°55'917.1
2017-Dec-08 19:31N 27°05' W 079°55'816.7
2017-Dec-08 19:01N 27°13' W 079°55'57 1.4
2017-Dec-07 02:29N 26°24' W 079°24'1021.4
2017-Dec-07 02:00N 26°14' W 079°24'2021.5
2017-Dec-07 01:04N 25°54' W 079°24'121.3
2017-Dec-07 01:00N 25°52' W 079°24'1121.1
2017-Dec-07 00:31N 25°42' W 079°24'  
Track history (hours):
 
Tides and Currents Weather Stations Pressure Air Temp Water Temp Dewpoint Dewpoint Depression Visibility Wind Speed Wind Dir Waves Ship Positions

Fs Ipanema

Last reported at 2017-Dec-10 06:06 UTC. Time now 2017-Dec-18 14:49 UTC.
Position N 25°33' W 079°36'.
Warning: this ship's position is 8 days out of date.

Length 180 m; draft 8.4 m.

Type: Cargo ship. MMSI: 636018056.

Date/timePositionNaut miles runAvg speedWind from/ knotsBaromVisibWave heightAir tempDewpointWater temp
2017-Dec-10 06:06N 25°33' W 079°36'218.0
2017-Dec-10 06:00N 25°35' W 079°36'917.9
2017-Dec-10 05:30N 25°43' W 079°38'816.8
2017-Dec-10 05:00N 25°51' W 079°41'815.6
2017-Dec-10 04:30N 25°56' W 079°48'612.9
2017-Dec-10 04:00N 25°59' W 079°54'612.2
2017-Dec-10 03:31N 26°03' W 079°60'510.7
2017-Dec-10 03:00N 26°05' W 080°05'2 4.1
2017-Dec-10 02:30N 26°04' W 080°07'0 0.3
2017-Dec-10 01:50N 26°04' W 080°07'0 0.0
2017-Dec-10 01:20N 26°04' W 080°07'0 0.0
2017-Dec-10 00:53N 26°04' W 080°07'0 0.0
2017-Dec-10 00:23N 26°04' W 080°07'0 0.0
2017-Dec-09 23:53N 26°04' W 080°07'0 0.0
2017-Dec-09 23:29N 26°04' W 080°07'0 0.0
2017-Dec-09 22:53N 26°04' W 080°07'0 0.0
2017-Dec-09 22:26N 26°04' W 080°07'0 0.0
2017-Dec-09 21:56N 26°04' W 080°07'0 0.0
2017-Dec-09 21:26N 26°04' W 080°07'0 0.0
2017-Dec-09 20:56N 26°04' W 080°07'0 0.0
2017-Dec-09 20:26N 26°04' W 080°07'0 0.0
2017-Dec-09 19:56N 26°04' W 080°07'0 0.0
2017-Dec-09 19:29N 26°04' W 080°07'0 0.0
2017-Dec-09 18:59N 26°04' W 080°07'0 0.0
2017-Dec-09 18:29N 26°04' W 080°07'0 0.0
2017-Dec-09 17:59N 26°04' W 080°07'0 0.0
2017-Dec-09 17:29N 26°04' W 080°07'0 0.0
2017-Dec-09 16:59N 26°04' W 080°07'0 0.0
2017-Dec-09 16:29N 26°04' W 080°07'0 0.0
2017-Dec-09 15:59N 26°04' W 080°07'0 0.0
2017-Dec-09 15:29N 26°04' W 080°07'0 0.0
2017-Dec-09 14:59N 26°04' W 080°07'0 0.0
2017-Dec-09 14:29N 26°04' W 080°07'0 0.0
2017-Dec-09 13:59N 26°04' W 080°07'0 0.0
2017-Dec-09 13:29N 26°04' W 080°07'0 0.0
2017-Dec-09 12:59N 26°04' W 080°07'0 0.0
2017-Dec-09 12:23N 26°04' W 080°07'0 0.0
2017-Dec-09 11:59N 26°04' W 080°07'0 0.0
2017-Dec-09 11:20N 26°04' W 080°07'0 0.0
2017-Dec-09 10:53N 26°04' W 080°07'0 0.0
2017-Dec-09 10:23N 26°04' W 080°07'0 0.0
2017-Dec-09 09:53N 26°04' W 080°07'0 0.0
2017-Dec-09 09:23N 26°04' W 080°07'0 0.0
2017-Dec-09 08:59N 26°04' W 080°07'0 0.0
2017-Dec-09 08:23N 26°04' W 080°07'0 0.0
2017-Dec-09 07:56N 26°04' W 080°07'0 0.0
2017-Dec-09 07:26N 26°04' W 080°07'0 0.0
2017-Dec-09 06:56N 26°04' W 080°07'0 0.0
2017-Dec-09 06:26N 26°04' W 080°07'0 0.0
2017-Dec-09 05:59N 26°04' W 080°07'0 0.0
2017-Dec-09 05:26N 26°04' W 080°07'0 0.0
2017-Dec-09 04:59N 26°04' W 080°07'0 0.0
2017-Dec-09 04:29N 26°04' W 080°07'0 0.0
2017-Dec-09 03:59N 26°04' W 080°07'0 0.0
2017-Dec-09 03:29N 26°04' W 080°07'0 0.0
2017-Dec-09 02:59N 26°04' W 080°07'0 0.0
2017-Dec-09 02:26N 26°04' W 080°07'0 0.0
2017-Dec-09 01:56N 26°04' W 080°07'0 0.0
2017-Dec-09 01:29N 26°04' W 080°07'0 0.0
2017-Dec-09 00:59N 26°04' W 080°07'0 0.2
2017-Dec-09 00:30N 26°04' W 080°07'1 2.7
2017-Dec-09 00:00N 26°06' W 080°06'4 7.4
2017-Dec-08 23:30N 26°06' W 080°02'1 2.8
2017-Dec-08 23:00N 26°07' W 080°01'816.8
2017-Dec-08 22:30N 26°14' W 079°57'816.5
2017-Dec-08 22:00N 26°23' W 079°55'816.6
2017-Dec-08 21:31N 26°31' W 079°55'917.7
2017-Dec-08 21:01N 26°40' W 079°55'816.6
2017-Dec-08 20:31N 26°48' W 079°55'817.0
2017-Dec-08 20:01N 26°56' W 079°55'917.1
2017-Dec-08 19:31N 27°05' W 079°55'816.7
2017-Dec-08 19:01N 27°13' W 079°55'57 1.4
2017-Dec-07 02:29N 26°24' W 079°24'1021.4
2017-Dec-07 02:00N 26°14' W 079°24'2021.5
2017-Dec-07 01:04N 25°54' W 079°24'121.3
2017-Dec-07 01:00N 25°52' W 079°24'1121.1
2017-Dec-07 00:31N 25°42' W 079°24'  

Dump ship's entire track history